createdAt,value
2022-11-16T00:00:20.996Z,51.88
2022-11-16T00:01:21.034Z,51.08
2022-11-16T00:02:21.047Z,49.95
2022-11-16T00:03:21.063Z,48.82
2022-11-16T00:04:21.657Z,49.31
2022-11-16T00:05:25.518Z,50.11
2022-11-16T00:06:21.964Z,49.79
2022-11-16T00:07:21.019Z,53.17
2022-11-16T00:08:20.961Z,51.72
2022-11-16T00:09:20.933Z,54.30
2022-11-16T00:10:20.922Z,53.98
2022-11-16T00:11:20.997Z,53.82
2022-11-16T00:12:20.930Z,52.05
2022-11-16T00:13:20.920Z,53.17
2022-11-16T00:14:20.916Z,55.75
2022-11-16T00:15:21.874Z,54.46
2022-11-16T00:16:20.897Z,52.37
2022-11-16T00:17:20.870Z,50.92
2022-11-16T00:18:20.884Z,54.14
2022-11-16T00:19:20.866Z,53.33
2022-11-16T00:20:20.875Z,54.95
2022-11-16T00:21:20.848Z,54.62
2022-11-16T00:22:20.844Z,53.98
2022-11-16T00:23:20.826Z,53.01
2022-11-16T00:24:20.814Z,52.05
2022-11-16T00:25:22.453Z,54.62
2022-11-16T00:26:20.813Z,55.59
2022-11-16T00:27:21.461Z,55.27
2022-11-16T00:28:20.805Z,55.59
2022-11-16T00:29:20.934Z,54.46
2022-11-16T00:30:20.838Z,54.30
2022-11-16T00:31:20.777Z,57.04
2022-11-16T00:32:20.772Z,55.59
2022-11-16T00:33:20.769Z,53.82
2022-11-16T00:34:20.812Z,52.85
2022-11-16T00:35:20.764Z,56.07
2022-11-16T00:36:20.726Z,52.69
2022-11-16T00:37:20.727Z,55.27
2022-11-16T00:38:20.723Z,56.40
2022-11-16T00:39:20.774Z,57.20
2022-11-16T00:40:20.705Z,55.27
2022-11-16T00:41:20.702Z,53.17
2022-11-16T00:42:20.694Z,50.60
2022-11-16T00:43:20.674Z,55.59
2022-11-16T00:44:22.951Z,54.14
2022-11-16T00:45:20.670Z,55.43
2022-11-16T00:46:20.656Z,56.24
2022-11-16T00:47:20.653Z,55.91
2022-11-16T00:48:20.949Z,54.14
2022-11-16T00:49:20.641Z,54.79
2022-11-16T00:50:20.658Z,55.27
2022-11-16T00:51:20.611Z,54.62
2022-11-16T00:52:20.624Z,57.85
2022-11-16T00:53:20.621Z,54.62
2022-11-16T00:54:22.387Z,54.62
2022-11-16T00:55:20.587Z,54.30
2022-11-16T00:56:20.598Z,53.98
2022-11-16T00:57:20.582Z,57.36
2022-11-16T00:58:20.561Z,57.69
2022-11-16T00:59:20.585Z,56.07
2022-11-16T01:00:20.551Z,55.27
2022-11-16T01:01:20.589Z,58.17
2022-11-16T01:02:20.561Z,57.04
2022-11-16T01:03:20.523Z,57.20
2022-11-16T01:04:20.983Z,53.82
2022-11-16T01:05:20.523Z,54.14
2022-11-16T01:06:20.533Z,55.59
2022-11-16T01:07:20.584Z,57.04
2022-11-16T01:08:20.489Z,54.95
2022-11-16T01:09:20.483Z,55.59
2022-11-16T01:10:20.512Z,56.07
2022-11-16T01:11:20.628Z,57.04
2022-11-16T01:12:20.462Z,54.30
2022-11-16T01:13:20.452Z,53.98
2022-11-16T01:14:20.460Z,52.37
2022-11-16T01:15:20.685Z,51.72
2022-11-16T01:16:20.452Z,54.95
2022-11-16T01:17:20.446Z,55.11
2022-11-16T01:18:20.422Z,51.08
2022-11-16T01:19:20.422Z,53.17
2022-11-16T01:20:20.449Z,50.76
2022-11-16T01:21:20.395Z,53.33
2022-11-16T01:22:20.429Z,53.33
2022-11-16T01:23:20.385Z,55.75
2022-11-16T01:24:20.458Z,56.88
2022-11-16T01:25:20.403Z,53.82
2022-11-16T01:26:20.361Z,53.50
2022-11-16T01:27:20.364Z,53.82
2022-11-16T01:28:20.346Z,57.04
2022-11-16T01:29:26.653Z,54.62
2022-11-16T01:30:20.349Z,56.07
2022-11-16T01:31:20.796Z,54.14
2022-11-16T01:32:20.412Z,56.72
2022-11-16T01:33:20.330Z,51.40
2022-11-16T01:34:20.309Z,52.05
2022-11-16T01:35:20.310Z,53.01
2022-11-16T01:36:20.738Z,55.27
2022-11-16T01:37:20.286Z,56.40
2022-11-16T01:38:20.312Z,57.69
2022-11-16T01:39:20.268Z,53.98
2022-11-16T01:40:20.280Z,50.43
2022-11-16T01:41:20.990Z,54.79
2022-11-16T01:42:20.251Z,55.43
2022-11-16T01:43:21.107Z,54.62
2022-11-16T01:44:21.088Z,54.30
2022-11-16T01:45:20.246Z,53.50
2022-11-16T01:46:20.583Z,54.79
2022-11-16T01:47:20.236Z,52.69
2022-11-16T01:48:20.302Z,51.72
2022-11-16T01:49:20.285Z,52.37
2022-11-16T01:50:20.205Z,54.46
2022-11-16T01:51:20.187Z,53.98
2022-11-16T01:52:20.212Z,57.36
2022-11-16T01:53:20.220Z,54.46
2022-11-16T01:54:20.197Z,54.62
2022-11-16T01:55:20.169Z,56.07
2022-11-16T01:56:20.140Z,53.50
2022-11-16T01:57:20.150Z,53.82
2022-11-16T01:58:20.147Z,51.56
2022-11-16T01:59:20.152Z,53.82
2022-11-16T02:00:20.119Z,52.05
2022-11-16T02:01:20.211Z,55.11
2022-11-16T02:02:20.122Z,55.11
2022-11-16T02:03:20.092Z,55.75
2022-11-16T02:04:20.115Z,56.07
2022-11-16T02:05:20.238Z,53.66
2022-11-16T02:06:20.073Z,55.59
2022-11-16T02:07:20.192Z,55.27
2022-11-16T02:08:20.070Z,52.69
2022-11-16T02:09:21.056Z,53.82
2022-11-16T02:10:20.080Z,55.11
2022-11-16T02:11:20.033Z,54.14
2022-11-16T02:12:20.114Z,54.30
2022-11-16T02:13:20.032Z,53.50
2022-11-16T02:14:21.222Z,54.30
2022-11-16T02:15:20.513Z,56.07
2022-11-16T02:16:20.011Z,54.79
2022-11-16T02:17:20.002Z,55.59
2022-11-16T02:18:19.976Z,52.85
2022-11-16T02:19:19.983Z,53.17
2022-11-16T02:20:19.996Z,51.88
2022-11-16T02:21:20.366Z,50.76
2022-11-16T02:22:19.961Z,50.43
2022-11-16T02:23:19.973Z,49.95
2022-11-16T02:24:19.947Z,50.27
2022-11-16T02:25:19.945Z,51.88
2022-11-16T02:26:19.976Z,52.85
2022-11-16T02:27:19.926Z,53.98
2022-11-16T02:28:19.907Z,53.33
2022-11-16T02:29:19.902Z,52.21
2022-11-16T02:30:19.918Z,51.24
2022-11-16T02:31:19.891Z,51.40
2022-11-16T02:32:21.272Z,52.05
2022-11-16T02:33:19.883Z,52.05
2022-11-16T02:34:19.859Z,51.88
2022-11-16T02:35:19.868Z,50.27
2022-11-16T02:36:20.412Z,51.72
2022-11-16T02:37:19.839Z,52.85
2022-11-16T02:38:19.845Z,53.17
2022-11-16T02:39:19.828Z,51.40
2022-11-16T02:40:19.830Z,50.92
2022-11-16T02:41:19.820Z,52.69
2022-11-16T02:42:20.461Z,49.63
2022-11-16T02:43:19.811Z,49.31
2022-11-16T02:44:19.794Z,52.53
2022-11-16T02:45:19.778Z,51.40
2022-11-16T02:46:19.784Z,52.05
2022-11-16T02:47:20.232Z,54.95
2022-11-16T02:48:19.756Z,53.82
2022-11-16T02:49:19.755Z,53.17
2022-11-16T02:50:19.762Z,50.60
2022-11-16T02:51:19.730Z,51.08
2022-11-16T02:52:19.740Z,51.08
2022-11-16T02:53:19.732Z,53.01
2022-11-16T02:54:19.734Z,51.40
2022-11-16T02:55:19.718Z,50.43
2022-11-16T02:56:19.696Z,50.76
2022-11-16T02:57:19.691Z,50.43
2022-11-16T02:58:20.401Z,51.24
2022-11-16T02:59:19.713Z,50.43
2022-11-16T03:00:19.682Z,49.47
2022-11-16T03:01:19.722Z,50.43
2022-11-16T03:02:19.655Z,50.60
2022-11-16T03:03:19.645Z,52.37
2022-11-16T03:04:19.725Z,51.24
2022-11-16T03:05:20.460Z,50.43
2022-11-16T03:06:19.632Z,50.11
2022-11-16T03:07:19.698Z,52.05
2022-11-16T03:08:19.614Z,52.85
2022-11-16T03:09:19.603Z,54.62
2022-11-16T03:10:20.256Z,52.53
2022-11-16T03:11:19.584Z,53.50
2022-11-16T03:12:19.595Z,53.66
2022-11-16T03:13:19.591Z,54.30
2022-11-16T03:14:19.588Z,53.50
2022-11-16T03:15:20.059Z,52.53
2022-11-16T03:16:19.552Z,51.56
2022-11-16T03:17:19.541Z,52.37
2022-11-16T03:18:19.554Z,51.56
2022-11-16T03:19:19.562Z,55.43
2022-11-16T03:20:19.543Z,51.08
2022-11-16T03:21:19.525Z,52.05
2022-11-16T03:22:19.902Z,52.05
2022-11-16T03:23:19.502Z,51.08
2022-11-16T03:24:19.508Z,53.33
2022-11-16T03:25:19.505Z,52.53
2022-11-16T03:26:19.724Z,52.37
2022-11-16T03:27:19.484Z,53.33
2022-11-16T03:28:19.465Z,52.21
2022-11-16T03:29:19.455Z,52.37
2022-11-16T03:30:23.378Z,52.69
2022-11-16T03:31:19.464Z,53.01
2022-11-16T03:32:19.457Z,52.69
2022-11-16T03:33:19.448Z,52.05
2022-11-16T03:34:19.433Z,52.85
2022-11-16T03:35:19.432Z,54.14
2022-11-16T03:36:19.411Z,53.82
2022-11-16T03:37:19.442Z,53.01
2022-11-16T03:38:19.407Z,55.75
2022-11-16T03:39:19.408Z,55.59
2022-11-16T03:40:19.407Z,54.95
2022-11-16T03:41:19.385Z,56.24
2022-11-16T03:42:19.374Z,55.59
2022-11-16T03:43:19.354Z,55.27
2022-11-16T03:44:19.793Z,54.95
2022-11-16T03:45:19.358Z,54.95
2022-11-16T03:46:19.419Z,54.95
2022-11-16T03:47:19.343Z,55.75
2022-11-16T03:48:19.344Z,56.56
2022-11-16T03:49:19.801Z,57.52
2022-11-16T03:50:19.312Z,55.59
2022-11-16T03:51:19.382Z,55.91
2022-11-16T03:52:20.657Z,54.14
2022-11-16T03:53:19.291Z,56.07
2022-11-16T03:54:19.297Z,55.11
2022-11-16T03:55:20.272Z,54.95
2022-11-16T03:56:19.289Z,55.27
2022-11-16T03:57:19.311Z,55.11
2022-11-16T03:58:19.259Z,54.62
2022-11-16T03:59:19.275Z,54.46
2022-11-16T04:00:19.252Z,55.11
2022-11-16T04:01:19.376Z,55.43
2022-11-16T04:02:20.399Z,53.98
2022-11-16T04:03:19.216Z,52.69
2022-11-16T04:04:19.211Z,55.59
2022-11-16T04:05:19.219Z,55.11
2022-11-16T04:06:19.216Z,55.27
2022-11-16T04:07:19.283Z,55.27
2022-11-16T04:08:19.190Z,55.27
2022-11-16T04:09:19.191Z,55.59
2022-11-16T04:10:21.520Z,53.66
2022-11-16T04:11:19.174Z,55.75
2022-11-16T04:12:19.166Z,55.91
2022-11-16T04:13:19.146Z,55.75
2022-11-16T04:14:19.486Z,56.40
2022-11-16T04:15:19.136Z,55.43
2022-11-16T04:16:19.123Z,56.24
2022-11-16T04:17:19.137Z,55.59
2022-11-16T04:18:19.140Z,54.79
2022-11-16T04:19:19.134Z,54.30
2022-11-16T04:20:19.114Z,56.07
2022-11-16T04:21:19.090Z,57.36
2022-11-16T04:22:19.081Z,56.56
2022-11-16T04:23:19.086Z,55.59
2022-11-16T04:24:19.276Z,55.91
2022-11-16T04:25:20.798Z,57.20
2022-11-16T04:26:19.098Z,58.81
2022-11-16T04:27:19.049Z,57.20
2022-11-16T04:28:19.047Z,58.49
2022-11-16T04:29:19.062Z,57.85
2022-11-16T04:30:19.520Z,58.33
2022-11-16T04:31:19.030Z,58.17
2022-11-16T04:32:25.703Z,59.30
2022-11-16T04:33:19.148Z,58.65
2022-11-16T04:34:19.835Z,57.20
2022-11-16T04:35:18.994Z,57.69
2022-11-16T04:36:20.993Z,55.27
2022-11-16T04:37:18.980Z,54.79
2022-11-16T04:38:19.000Z,57.85
2022-11-16T04:39:19.030Z,56.07
2022-11-16T04:40:18.969Z,54.62
2022-11-16T04:41:19.002Z,56.56
2022-11-16T04:42:19.189Z,56.88
2022-11-16T04:43:18.959Z,55.91
2022-11-16T04:44:18.939Z,56.24
2022-11-16T04:45:18.921Z,58.17
2022-11-16T04:46:18.942Z,58.01
2022-11-16T04:47:18.905Z,59.46
2022-11-16T04:48:18.895Z,57.69
2022-11-16T04:49:18.970Z,58.33
2022-11-16T04:50:19.652Z,58.65
2022-11-16T04:51:18.953Z,57.85
2022-11-16T04:52:18.890Z,57.20
2022-11-16T04:53:18.873Z,57.36
2022-11-16T04:54:18.859Z,55.91
2022-11-16T04:55:18.869Z,56.56
2022-11-16T04:56:18.860Z,56.56
2022-11-16T04:57:18.841Z,57.85
2022-11-16T04:58:18.857Z,58.97
2022-11-16T04:59:18.888Z,58.97
2022-11-16T05:00:18.819Z,58.17
2022-11-16T05:01:18.987Z,58.65
2022-11-16T05:02:18.811Z,57.85
2022-11-16T05:03:18.806Z,58.81
2022-11-16T05:04:18.802Z,56.40
2022-11-16T05:05:18.786Z,56.40
2022-11-16T05:06:19.142Z,57.52
2022-11-16T05:07:18.820Z,56.07
2022-11-16T05:08:18.760Z,54.95
2022-11-16T05:09:18.764Z,56.40
2022-11-16T05:10:18.764Z,55.91
2022-11-16T05:11:19.045Z,54.79
2022-11-16T05:12:18.740Z,55.27
2022-11-16T05:13:18.781Z,55.59
2022-11-16T05:14:18.721Z,53.50
2022-11-16T05:15:18.726Z,56.88
2022-11-16T05:16:18.738Z,56.72
2022-11-16T05:17:18.701Z,58.97
2022-11-16T05:18:19.451Z,59.30
2022-11-16T05:19:18.691Z,58.81
2022-11-16T05:20:18.681Z,57.85
2022-11-16T05:21:18.713Z,58.81
2022-11-16T05:22:18.701Z,57.85
2022-11-16T05:23:18.677Z,58.17
2022-11-16T05:24:18.673Z,58.33
2022-11-16T05:25:18.656Z,56.40
2022-11-16T05:26:18.640Z,57.36
2022-11-16T05:27:18.693Z,59.46
2022-11-16T05:28:19.362Z,58.81
2022-11-16T05:29:18.895Z,56.56
2022-11-16T05:30:18.642Z,57.36
2022-11-16T05:31:18.606Z,56.88
2022-11-16T05:32:18.636Z,57.69
2022-11-16T05:33:18.623Z,58.33
2022-11-16T05:34:23.537Z,57.20
2022-11-16T05:35:18.591Z,58.17
2022-11-16T05:36:18.593Z,57.20
2022-11-16T05:37:18.566Z,57.20
2022-11-16T05:38:18.599Z,58.97
2022-11-16T05:39:18.981Z,58.65
2022-11-16T05:40:18.550Z,58.17
2022-11-16T05:41:18.555Z,58.49
2022-11-16T05:42:18.594Z,58.01
2022-11-16T05:43:18.543Z,57.85
2022-11-16T05:44:18.531Z,59.94
2022-11-16T05:45:21.192Z,58.49
2022-11-16T05:46:18.532Z,59.14
2022-11-16T05:47:18.495Z,57.20
2022-11-16T05:48:18.494Z,57.69
2022-11-16T05:49:18.495Z,58.17
2022-11-16T05:50:18.479Z,58.17
2022-11-16T05:51:19.167Z,56.56
2022-11-16T05:52:18.477Z,56.88
2022-11-16T05:53:18.741Z,57.20
2022-11-16T05:54:18.488Z,56.07
2022-11-16T05:55:18.439Z,57.04
2022-11-16T05:56:18.449Z,56.24
2022-11-16T05:57:19.218Z,56.07
2022-11-16T05:58:20.325Z,57.04
2022-11-16T05:59:18.421Z,55.91
2022-11-16T06:00:18.412Z,56.07
2022-11-16T06:01:18.412Z,57.52
2022-11-16T06:02:18.395Z,57.85
2022-11-16T06:03:18.474Z,58.17
2022-11-16T06:04:23.253Z,55.43
2022-11-16T06:05:19.635Z,55.59
2022-11-16T06:06:18.433Z,56.07
2022-11-16T06:07:18.461Z,55.91
2022-11-16T06:08:18.386Z,58.49
2022-11-16T06:09:18.359Z,57.04
2022-11-16T06:10:18.398Z,55.27
2022-11-16T06:11:19.303Z,55.43
2022-11-16T06:12:18.352Z,56.88
2022-11-16T06:13:18.337Z,56.56
2022-11-16T06:14:18.803Z,57.04
2022-11-16T06:15:18.352Z,56.88
2022-11-16T06:16:18.699Z,56.88
2022-11-16T06:17:18.364Z,56.88
2022-11-16T06:18:18.346Z,57.52
2022-11-16T06:19:18.286Z,56.40
2022-11-16T06:20:18.284Z,55.59
2022-11-16T06:21:18.291Z,57.36
2022-11-16T06:22:18.271Z,55.59
2022-11-16T06:23:18.273Z,54.62
2022-11-16T06:24:18.259Z,56.24
2022-11-16T06:25:18.251Z,57.52
2022-11-16T06:26:18.247Z,58.17
2022-11-16T06:27:18.220Z,58.01
2022-11-16T06:28:18.227Z,58.49
2022-11-16T06:29:18.223Z,57.52
2022-11-16T06:30:18.597Z,57.69
2022-11-16T06:31:18.194Z,58.17
2022-11-16T06:32:18.497Z,57.85
2022-11-16T06:33:18.199Z,56.56
2022-11-16T06:34:18.171Z,58.49
2022-11-16T06:35:18.182Z,58.49
2022-11-16T06:36:18.193Z,57.85
2022-11-16T06:37:19.382Z,58.17
2022-11-16T06:38:18.158Z,56.56
2022-11-16T06:39:18.146Z,57.69
2022-11-16T06:40:18.161Z,58.97
2022-11-16T06:41:18.194Z,58.97
2022-11-16T06:42:18.141Z,59.46
2022-11-16T06:43:18.127Z,57.20
2022-11-16T06:44:18.114Z,57.04
2022-11-16T06:45:18.169Z,57.36
2022-11-16T06:46:18.095Z,55.27
2022-11-16T06:47:18.146Z,54.95
2022-11-16T06:48:18.394Z,56.24
2022-11-16T06:49:18.912Z,55.11
2022-11-16T06:50:18.090Z,55.75
2022-11-16T06:51:18.122Z,55.91
2022-11-16T06:52:18.055Z,54.79
2022-11-16T06:53:39.052Z,54.62
2022-11-16T06:54:18.752Z,53.98
2022-11-16T06:55:18.032Z,54.14
2022-11-16T06:56:18.027Z,55.27
2022-11-16T06:57:18.037Z,56.07
2022-11-16T06:58:18.027Z,55.27
2022-11-16T06:59:18.008Z,55.91
2022-11-16T07:00:18.006Z,56.72
2022-11-16T07:01:18.123Z,54.46
2022-11-16T07:02:18.008Z,54.62
2022-11-16T07:03:17.990Z,54.46
2022-11-16T07:04:18.022Z,53.66
2022-11-16T07:05:18.424Z,53.01
2022-11-16T07:06:17.962Z,54.14
2022-11-16T07:07:18.108Z,54.79
2022-11-16T07:08:17.943Z,55.11
2022-11-16T07:09:18.989Z,54.46
2022-11-16T07:10:17.941Z,53.50
2022-11-16T07:11:19.004Z,54.30
2022-11-16T07:12:17.930Z,55.11
2022-11-16T07:13:17.908Z,56.07
2022-11-16T07:14:17.903Z,55.59
2022-11-16T07:15:17.919Z,62.68
2022-11-16T07:16:17.921Z,54.30
2022-11-16T07:17:17.882Z,54.79
2022-11-16T07:18:18.755Z,55.43
2022-11-16T07:19:17.882Z,55.27
2022-11-16T07:20:18.068Z,54.30
2022-11-16T07:21:17.867Z,53.33
2022-11-16T07:22:17.860Z,54.95
2022-11-16T07:23:17.837Z,55.11
2022-11-16T07:24:17.852Z,55.59
2022-11-16T07:25:17.839Z,54.46
2022-11-16T07:26:18.215Z,53.98
2022-11-16T07:27:17.821Z,55.11
2022-11-16T07:28:17.802Z,53.98
2022-11-16T07:29:17.801Z,54.30
2022-11-16T07:30:17.793Z,53.82
2022-11-16T07:31:17.822Z,53.98
2022-11-16T07:32:17.767Z,54.14
2022-11-16T07:33:17.770Z,53.33
2022-11-16T07:34:17.801Z,55.59
2022-11-16T07:35:17.756Z,53.98
2022-11-16T07:36:17.874Z,53.33
2022-11-16T07:37:17.731Z,53.33
2022-11-16T07:38:18.723Z,54.14
2022-11-16T07:39:17.738Z,54.79
2022-11-16T07:40:17.755Z,54.62
2022-11-16T07:41:17.722Z,55.59
2022-11-16T07:42:17.719Z,55.91
2022-11-16T07:43:17.695Z,56.07
2022-11-16T07:44:17.745Z,55.75
2022-11-16T07:45:18.159Z,55.91
2022-11-16T07:46:48.115Z,56.40
2022-11-16T07:47:18.687Z,54.79
2022-11-16T07:48:17.679Z,54.79
2022-11-16T07:49:17.714Z,54.46
2022-11-16T07:50:18.201Z,53.50
2022-11-16T07:51:17.626Z,54.30
2022-11-16T07:52:17.667Z,55.43
2022-11-16T07:53:17.620Z,55.91
2022-11-16T07:54:17.664Z,58.33
2022-11-16T07:55:19.995Z,57.20
2022-11-16T07:56:17.594Z,58.01
2022-11-16T07:57:17.600Z,53.66
2022-11-16T07:58:17.592Z,53.17
2022-11-16T07:59:17.580Z,55.11
2022-11-16T08:00:17.582Z,54.95
2022-11-16T08:01:17.603Z,55.27
2022-11-16T08:02:17.559Z,52.53
2022-11-16T08:03:23.409Z,53.82
2022-11-16T08:04:18.561Z,55.11
2022-11-16T08:05:17.534Z,54.14
2022-11-16T08:06:17.524Z,54.30
2022-11-16T08:07:17.575Z,53.66
2022-11-16T08:08:17.552Z,55.43
2022-11-16T08:09:17.525Z,54.79
2022-11-16T08:10:17.988Z,54.62
2022-11-16T08:11:17.498Z,55.11
2022-11-16T08:12:17.486Z,55.59
2022-11-16T08:13:17.462Z,56.72
2022-11-16T08:14:17.457Z,55.75
2022-11-16T08:15:17.459Z,55.43
2022-11-16T08:16:18.219Z,53.82
2022-11-16T08:17:17.454Z,53.98
2022-11-16T08:18:17.443Z,54.46
2022-11-16T08:19:17.446Z,55.59
2022-11-16T08:20:17.414Z,54.30
2022-11-16T08:21:17.413Z,53.50
2022-11-16T08:22:17.408Z,54.14
2022-11-16T08:23:17.428Z,55.43
2022-11-16T08:24:17.577Z,55.11
2022-11-16T08:25:17.394Z,54.30
2022-11-16T08:26:17.369Z,55.59
2022-11-16T08:27:17.390Z,54.62
2022-11-16T08:28:18.048Z,54.62
2022-11-16T08:29:17.357Z,54.79
2022-11-16T08:30:17.355Z,53.66
2022-11-16T08:31:17.336Z,54.62
2022-11-16T08:32:17.344Z,55.11
2022-11-16T08:33:17.556Z,53.01
2022-11-16T08:34:17.313Z,53.50
2022-11-16T08:35:17.324Z,53.01
2022-11-16T08:36:17.389Z,53.01
2022-11-16T08:37:17.297Z,51.88
2022-11-16T08:38:17.312Z,52.69
2022-11-16T08:39:17.737Z,52.53
2022-11-16T08:40:17.295Z,53.01
2022-11-16T08:41:17.271Z,52.37
2022-11-16T08:42:17.361Z,52.21
2022-11-16T08:43:17.247Z,53.50
2022-11-16T08:44:17.266Z,54.14
2022-11-16T08:45:17.229Z,53.82
2022-11-16T08:46:17.228Z,52.85
2022-11-16T08:47:17.232Z,53.33
2022-11-16T08:48:17.212Z,53.50
2022-11-16T08:49:17.236Z,53.50
2022-11-16T08:50:44.260Z,52.69
2022-11-16T08:51:19.462Z,53.01
2022-11-16T08:52:17.180Z,53.66
2022-11-16T08:53:17.174Z,53.82
2022-11-16T08:54:17.601Z,53.50
2022-11-16T08:55:17.170Z,53.17
2022-11-16T08:56:17.183Z,53.01
2022-11-16T08:57:17.185Z,52.05
2022-11-16T08:58:17.144Z,53.17
2022-11-16T08:59:17.480Z,54.46
2022-11-16T09:00:17.139Z,54.30
2022-11-16T09:01:17.301Z,52.69
2022-11-16T09:02:17.148Z,54.14
2022-11-16T09:03:17.135Z,53.17
2022-11-16T09:04:17.120Z,53.01
2022-11-16T09:05:17.099Z,52.85
2022-11-16T09:06:17.089Z,52.85
2022-11-16T09:07:17.130Z,52.05
2022-11-16T09:08:17.064Z,53.82
2022-11-16T09:09:17.075Z,52.69
2022-11-16T09:10:17.070Z,53.98
2022-11-16T09:11:17.055Z,52.05
2022-11-16T09:12:38.091Z,52.69
2022-11-16T09:13:17.032Z,53.66
2022-11-16T09:14:17.024Z,52.21
2022-11-16T09:15:17.020Z,52.37
2022-11-16T09:16:17.506Z,53.82
2022-11-16T09:17:22.762Z,52.21
2022-11-16T09:18:18.004Z,52.05
2022-11-16T09:19:16.985Z,53.33
2022-11-16T09:20:16.973Z,52.37
2022-11-16T09:21:16.985Z,53.50
2022-11-16T09:22:16.980Z,51.56
2022-11-16T09:23:20.965Z,51.88
2022-11-16T09:24:17.952Z,53.17
2022-11-16T09:25:16.939Z,52.53
2022-11-16T09:26:16.946Z,52.85
2022-11-16T09:27:16.982Z,51.72
2022-11-16T09:28:17.735Z,50.60
2022-11-16T09:29:16.917Z,49.79
2022-11-16T09:30:16.918Z,50.27
2022-11-16T09:31:21.976Z,51.56
2022-11-16T09:32:17.913Z,50.76
2022-11-16T09:33:16.878Z,49.95
2022-11-16T09:34:16.884Z,50.76
2022-11-16T09:35:16.872Z,50.60
2022-11-16T09:36:16.879Z,50.43
2022-11-16T09:37:16.852Z,53.17
2022-11-16T09:38:24.148Z,53.33
2022-11-16T09:39:53.737Z,50.27
2022-11-16T09:40:16.832Z,51.24
2022-11-16T09:41:16.852Z,51.08
2022-11-16T09:42:16.814Z,48.98
2022-11-16T09:43:16.807Z,48.98
2022-11-16T09:44:18.892Z,49.31
2022-11-16T09:45:16.794Z,48.82
2022-11-16T09:46:16.788Z,48.66
2022-11-16T09:47:16.793Z,49.79
2022-11-16T09:48:16.782Z,48.18
2022-11-16T09:49:17.872Z,49.15
2022-11-16T09:50:17.487Z,48.34
2022-11-16T09:51:16.762Z,47.21
2022-11-16T09:52:16.751Z,50.43
2022-11-16T09:53:16.741Z,46.89
2022-11-16T09:54:17.998Z,46.89
2022-11-16T09:55:16.747Z,45.60
2022-11-16T09:56:21.824Z,46.73
2022-11-16T09:57:18.279Z,48.18
2022-11-16T09:58:16.707Z,50.43
2022-11-16T09:59:18.300Z,49.47
2022-11-16T10:00:16.804Z,47.37
2022-11-16T10:01:16.751Z,47.21
2022-11-16T10:02:16.690Z,47.70
2022-11-16T10:03:17.908Z,47.05
2022-11-16T10:04:16.657Z,47.86
2022-11-16T10:05:16.664Z,48.02
2022-11-16T10:06:16.652Z,49.31
2022-11-16T10:07:17.111Z,47.70
2022-11-16T10:08:16.636Z,48.34
2022-11-16T10:09:16.628Z,48.50
2022-11-16T10:10:16.640Z,47.86
2022-11-16T10:11:16.610Z,46.25
2022-11-16T10:12:16.615Z,46.73
2022-11-16T10:13:16.594Z,46.57
2022-11-16T10:14:16.596Z,47.05
2022-11-16T10:15:16.588Z,50.27
2022-11-16T10:16:16.609Z,48.34
2022-11-16T10:17:16.578Z,47.05
2022-11-16T10:18:16.573Z,46.25
2022-11-16T10:19:16.563Z,47.05
2022-11-16T10:20:16.550Z,47.21
2022-11-16T10:21:17.280Z,46.73
2022-11-16T10:22:16.540Z,46.89
2022-11-16T10:23:16.531Z,47.21
2022-11-16T10:24:16.525Z,46.73
2022-11-16T10:25:16.509Z,48.82
2022-11-16T10:26:16.513Z,49.47
2022-11-16T10:27:21.709Z,48.82
2022-11-16T10:28:17.559Z,49.31
2022-11-16T10:29:16.488Z,50.43
2022-11-16T10:30:16.478Z,48.82
2022-11-16T10:31:16.883Z,49.63
2022-11-16T10:32:16.908Z,49.15
2022-11-16T10:33:16.451Z,50.43
2022-11-16T10:34:16.458Z,48.02
2022-11-16T10:35:17.675Z,48.66
2022-11-16T10:36:16.435Z,47.70
2022-11-16T10:37:16.439Z,47.70
2022-11-16T10:38:16.417Z,48.34
2022-11-16T10:39:18.499Z,46.41
2022-11-16T10:40:16.413Z,45.76
2022-11-16T10:41:16.410Z,47.53
2022-11-16T10:42:16.416Z,46.73
2022-11-16T10:43:16.389Z,47.86
2022-11-16T10:44:16.412Z,48.18
2022-11-16T10:45:16.376Z,47.53
2022-11-16T10:46:16.373Z,46.89
2022-11-16T10:47:16.361Z,47.21
2022-11-16T10:48:16.455Z,47.70
2022-11-16T10:49:16.354Z,46.89
2022-11-16T10:50:16.343Z,47.37
2022-11-16T10:51:16.335Z,47.70
2022-11-16T10:52:16.646Z,47.37
2022-11-16T10:53:16.326Z,48.02
2022-11-16T10:54:16.328Z,47.70
2022-11-16T10:55:16.313Z,46.08
2022-11-16T10:56:16.298Z,47.37
2022-11-16T10:57:16.300Z,47.21
2022-11-16T10:58:16.282Z,47.37
2022-11-16T10:59:16.853Z,46.89
2022-11-16T11:00:22.041Z,48.34
2022-11-16T11:01:17.325Z,47.05
2022-11-16T11:02:16.263Z,47.86
2022-11-16T11:03:16.258Z,48.66
2022-11-16T11:04:16.375Z,46.89
2022-11-16T11:05:16.248Z,49.47
2022-11-16T11:06:16.219Z,50.11
2022-11-16T11:07:16.241Z,47.05
2022-11-16T11:08:16.296Z,48.98
2022-11-16T11:09:16.196Z,48.02
2022-11-16T11:10:16.214Z,49.15
2022-11-16T11:11:16.189Z,45.12
2022-11-16T11:12:16.205Z,45.60
2022-11-16T11:13:16.191Z,46.57
2022-11-16T11:14:16.169Z,47.53
2022-11-16T11:15:19.056Z,48.18
2022-11-16T11:16:17.157Z,45.76
2022-11-16T11:17:16.143Z,45.12
2022-11-16T11:18:16.135Z,46.25
2022-11-16T11:19:16.136Z,45.44
2022-11-16T11:20:16.193Z,45.44
2022-11-16T11:21:16.163Z,45.76
2022-11-16T11:22:16.123Z,45.44
2022-11-16T11:23:16.104Z,45.44
2022-11-16T11:24:42.934Z,47.37
2022-11-16T11:25:17.103Z,47.37
2022-11-16T11:26:16.071Z,45.92
2022-11-16T11:27:16.065Z,45.44
2022-11-16T11:28:16.067Z,44.96
2022-11-16T11:29:16.059Z,45.28
2022-11-16T11:30:16.116Z,46.08
2022-11-16T11:31:16.048Z,46.73
2022-11-16T11:32:24.128Z,45.76
2022-11-16T11:33:17.023Z,46.73
2022-11-16T11:34:16.034Z,46.73
2022-11-16T11:35:16.015Z,44.79
2022-11-16T11:36:16.034Z,46.57
2022-11-16T11:37:16.008Z,44.96
2022-11-16T11:38:16.005Z,45.60
2022-11-16T11:39:16.070Z,45.92
2022-11-16T11:40:16.123Z,45.92
2022-11-16T11:41:15.972Z,46.41
2022-11-16T11:42:16.644Z,46.73
2022-11-16T11:43:18.876Z,47.70
2022-11-16T11:44:15.951Z,46.57
2022-11-16T11:45:15.943Z,48.66
2022-11-16T11:46:15.932Z,47.05
2022-11-16T11:47:55.448Z,49.79
2022-11-16T11:48:16.920Z,45.44
2022-11-16T11:49:16.049Z,46.57
2022-11-16T11:50:15.904Z,47.53
2022-11-16T11:51:15.906Z,47.05
2022-11-16T11:52:16.003Z,45.76
2022-11-16T11:53:15.878Z,46.08
2022-11-16T11:54:16.089Z,46.41
2022-11-16T11:55:15.876Z,48.34
2022-11-16T11:56:15.875Z,48.34
2022-11-16T11:57:15.858Z,47.86
2022-11-16T11:58:16.520Z,45.60
2022-11-16T11:59:15.852Z,45.28
2022-11-16T12:00:15.845Z,46.25
2022-11-16T12:01:19.452Z,47.37
2022-11-16T12:02:16.823Z,46.57
2022-11-16T12:03:15.858Z,45.92
2022-11-16T12:04:15.799Z,46.25
2022-11-16T12:05:15.820Z,46.25
2022-11-16T12:06:15.801Z,46.08
2022-11-16T12:07:15.789Z,47.21
2022-11-16T12:08:15.902Z,46.41
2022-11-16T12:09:15.781Z,45.28
2022-11-16T12:10:15.762Z,45.28
2022-11-16T12:11:16.532Z,46.25
2022-11-16T12:12:15.740Z,44.31
2022-11-16T12:13:16.604Z,46.08
2022-11-16T12:14:15.767Z,45.60
2022-11-16T12:15:15.731Z,44.47
2022-11-16T12:16:15.811Z,46.08
2022-11-16T12:17:15.727Z,43.99
2022-11-16T12:18:16.170Z,45.28
2022-11-16T12:19:15.692Z,46.73
2022-11-16T12:20:15.713Z,45.44
2022-11-16T12:21:15.677Z,46.73
2022-11-16T12:22:15.690Z,46.08
2022-11-16T12:23:16.530Z,48.18
2022-11-16T12:24:16.771Z,46.57
2022-11-16T12:25:15.669Z,47.37
2022-11-16T12:26:15.641Z,47.21
2022-11-16T12:27:15.629Z,47.21
2022-11-16T12:28:15.642Z,46.89
2022-11-16T12:29:15.619Z,45.76
2022-11-16T12:30:15.642Z,44.79
2022-11-16T12:31:15.672Z,45.76
2022-11-16T12:32:15.598Z,46.08
2022-11-16T12:33:37.229Z,46.25
2022-11-16T12:34:15.584Z,46.25
2022-11-16T12:35:15.584Z,44.79
2022-11-16T12:36:15.570Z,45.44
2022-11-16T12:37:15.560Z,45.12
2022-11-16T12:38:15.555Z,45.28
2022-11-16T12:39:15.553Z,46.73
2022-11-16T12:40:15.653Z,45.28
2022-11-16T12:41:15.538Z,45.92
2022-11-16T12:42:15.529Z,46.73
2022-11-16T12:43:15.612Z,43.18
2022-11-16T12:44:15.540Z,46.41
2022-11-16T12:45:16.771Z,44.96
2022-11-16T12:46:15.494Z,43.02
2022-11-16T12:47:15.493Z,44.47
2022-11-16T12:48:15.512Z,44.47
2022-11-16T12:49:15.469Z,44.47
2022-11-16T12:50:15.468Z,45.60
2022-11-16T12:51:15.463Z,44.31
2022-11-16T12:52:15.474Z,46.25